sensor_id;sensor_type;location;lat;lon;timestamp;temperature;humidity
34542;DHT22;20784;51.332;12.410;2022-12-18T00:01:04;-6.50;99.90
34542;DHT22;20784;51.332;12.410;2022-12-18T00:03:35;-6.50;99.90
34542;DHT22;20784;51.332;12.410;2022-12-18T00:06:01;-6.50;99.90
34542;DHT22;20784;51.332;12.410;2022-12-18T00:08:28;-6.40;99.90
34542;DHT22;20784;51.332;12.410;2022-12-18T00:10:54;-6.50;99.90
34542;DHT22;20784;51.332;12.410;2022-12-18T00:13:19;-6.60;99.90
34542;DHT22;20784;51.332;12.410;2022-12-18T00:15:45;-6.40;99.90
34542;DHT22;20784;51.332;12.410;2022-12-18T00:18:11;-6.50;99.90
34542;DHT22;20784;51.332;12.410;2022-12-18T00:20:38;-6.50;99.90
34542;DHT22;20784;51.332;12.410;2022-12-18T00:23:05;-6.60;99.90
34542;DHT22;20784;51.332;12.410;2022-12-18T00:25:35;-6.50;99.90
34542;DHT22;20784;51.332;12.410;2022-12-18T00:28:04;-6.50;99.90
34542;DHT22;20784;51.332;12.410;2022-12-18T00:30:29;-6.60;99.90
34542;DHT22;20784;51.332;12.410;2022-12-18T00:32:55;-6.60;99.90
34542;DHT22;20784;51.332;12.410;2022-12-18T00:35:21;-6.60;99.90
34542;DHT22;20784;51.332;12.410;2022-12-18T00:37:47;-6.60;99.90
34542;DHT22;20784;51.332;12.410;2022-12-18T00:40:12;-6.60;99.90
34542;DHT22;20784;51.332;12.410;2022-12-18T00:42:38;-6.70;99.90
34542;DHT22;20784;51.332;12.410;2022-12-18T00:45:27;-6.60;99.90
34542;DHT22;20784;51.332;12.410;2022-12-18T00:47:53;-6.70;99.90
34542;DHT22;20784;51.332;12.410;2022-12-18T00:50:18;-6.70;99.90
34542;DHT22;20784;51.332;12.410;2022-12-18T00:52:44;-6.70;99.90
34542;DHT22;20784;51.332;12.410;2022-12-18T00:55:10;-6.70;99.80
34542;DHT22;20784;51.332;12.410;2022-12-18T00:57:36;-6.80;99.90
34542;DHT22;20784;51.332;12.410;2022-12-18T01:00:04;-6.80;99.90
34542;DHT22;20784;51.332;12.410;2022-12-18T01:02:30;-6.80;99.90
34542;DHT22;20784;51.332;12.410;2022-12-18T01:04:56;-6.70;99.90
34542;DHT22;20784;51.332;12.410;2022-12-18T01:07:21;-6.80;99.90
34542;DHT22;20784;51.332;12.410;2022-12-18T01:09:47;-6.80;99.90
34542;DHT22;20784;51.332;12.410;2022-12-18T01:12:13;-6.80;99.30
34542;DHT22;20784;51.332;12.410;2022-12-18T01:14:38;-6.90;98.90
34542;DHT22;20784;51.332;12.410;2022-12-18T01:17:04;-6.80;99.90
34542;DHT22;20784;51.332;12.410;2022-12-18T01:19:30;-6.90;99.90
34542;DHT22;20784;51.332;12.410;2022-12-18T01:21:56;-6.90;99.90
34542;DHT22;20784;51.332;12.410;2022-12-18T01:24:22;-6.80;99.90
34542;DHT22;20784;51.332;12.410;2022-12-18T01:26:47;-6.70;99.90
34542;DHT22;20784;51.332;12.410;2022-12-18T01:29:13;-6.70;99.90
34542;DHT22;20784;51.332;12.410;2022-12-18T01:31:38;-6.80;99.90
34542;DHT22;20784;51.332;12.410;2022-12-18T01:34:04;-6.80;99.90
34542;DHT22;20784;51.332;12.410;2022-12-18T01:36:38;-6.80;99.90
34542;DHT22;20784;51.332;12.410;2022-12-18T01:39:11;-6.80;99.90
34542;DHT22;20784;51.332;12.410;2022-12-18T01:41:40;-6.70;99.90
34542;DHT22;20784;51.332;12.410;2022-12-18T01:44:54;-6.70;99.90
34542;DHT22;20784;51.332;12.410;2022-12-18T01:49:49;-6.80;99.90
34542;DHT22;20784;51.332;12.410;2022-12-18T01:52:15;-6.80;99.90
34542;DHT22;20784;51.332;12.410;2022-12-18T01:54:42;-6.80;99.90
34542;DHT22;20784;51.332;12.410;2022-12-18T01:57:07;-6.80;99.90
34542;DHT22;20784;51.332;12.410;2022-12-18T01:59:33;-6.80;99.90
34542;DHT22;20784;51.332;12.410;2022-12-18T02:02:01;-6.90;99.90
34542;DHT22;20784;51.332;12.410;2022-12-18T02:04:30;-6.90;99.90
34542;DHT22;20784;51.332;12.410;2022-12-18T02:10:20;-6.80;99.90
34542;DHT22;20784;51.332;12.410;2022-12-18T02:18:41;-6.90;99.90
34542;DHT22;20784;51.332;12.410;2022-12-18T02:23:52;-6.90;99.90
34542;DHT22;20784;51.332;12.410;2022-12-18T02:26:30;-6.90;99.90
34542;DHT22;20784;51.332;12.410;2022-12-18T02:29:05;-6.80;99.90
34542;DHT22;20784;51.332;12.410;2022-12-18T02:31:39;-6.90;99.90
34542;DHT22;20784;51.332;12.410;2022-12-18T02:34:08;-6.80;99.90
34542;DHT22;20784;51.332;12.410;2022-12-18T02:36:36;-6.90;99.90
34542;DHT22;20784;51.332;12.410;2022-12-18T02:39:05;-6.80;99.90
34542;DHT22;20784;51.332;12.410;2022-12-18T02:41:32;-6.90;99.90
34542;DHT22;20784;51.332;12.410;2022-12-18T02:44:00;-6.90;99.90
34542;DHT22;20784;51.332;12.410;2022-12-18T02:46:36;-6.90;99.90
34542;DHT22;20784;51.332;12.410;2022-12-18T02:49:15;-6.90;99.90
34542;DHT22;20784;51.332;12.410;2022-12-18T02:51:48;-6.90;99.90
34542;DHT22;20784;51.332;12.410;2022-12-18T02:54:24;-6.90;99.90
34542;DHT22;20784;51.332;12.410;2022-12-18T02:56:54;-6.90;99.90
34542;DHT22;20784;51.332;12.410;2022-12-18T02:59:40;-6.90;99.90
34542;DHT22;20784;51.332;12.410;2022-12-18T03:02:28;-6.90;99.90
34542;DHT22;20784;51.332;12.410;2022-12-18T03:05:00;-6.90;99.90
34542;DHT22;20784;51.332;12.410;2022-12-18T03:07:37;-6.90;99.90
34542;DHT22;20784;51.332;12.410;2022-12-18T03:10:06;-6.90;99.90
34542;DHT22;20784;51.332;12.410;2022-12-18T03:12:37;-6.90;99.90
34542;DHT22;20784;51.332;12.410;2022-12-18T03:15:13;-7.00;99.90
34542;DHT22;20784;51.332;12.410;2022-12-18T03:17:41;-7.10;99.90
34542;DHT22;20784;51.332;12.410;2022-12-18T03:20:20;-7.10;99.90
34542;DHT22;20784;51.332;12.410;2022-12-18T03:22:51;-7.10;99.90
34542;DHT22;20784;51.332;12.410;2022-12-18T03:25:21;-7.10;99.90
34542;DHT22;20784;51.332;12.410;2022-12-18T03:27:51;-7.10;99.90
34542;DHT22;20784;51.332;12.410;2022-12-18T03:30:17;-7.10;99.90
34542;DHT22;20784;51.332;12.410;2022-12-18T03:35:36;-7.10;99.90
34542;DHT22;20784;51.332;12.410;2022-12-18T03:38:02;-7.10;99.90
34542;DHT22;20784;51.332;12.410;2022-12-18T03:48:48;-7.20;99.90
34542;DHT22;20784;51.332;12.410;2022-12-18T03:51:25;-7.20;99.90
34542;DHT22;20784;51.332;12.410;2022-12-18T03:54:00;-7.20;99.90
34542;DHT22;20784;51.332;12.410;2022-12-18T03:56:29;-7.20;99.90
34542;DHT22;20784;51.332;12.410;2022-12-18T03:58:57;-7.30;99.90
34542;DHT22;20784;51.332;12.410;2022-12-18T04:01:30;-7.30;99.90
34542;DHT22;20784;51.332;12.410;2022-12-18T04:03:59;-7.40;99.90
34542;DHT22;20784;51.332;12.410;2022-12-18T04:06:26;-7.40;99.90
34542;DHT22;20784;51.332;12.410;2022-12-18T04:08:52;-7.40;99.90
34542;DHT22;20784;51.332;12.410;2022-12-18T04:11:18;-7.40;99.90
34542;DHT22;20784;51.332;12.410;2022-12-18T04:13:44;-7.30;99.90
34542;DHT22;20784;51.332;12.410;2022-12-18T04:16:17;-7.30;99.90
34542;DHT22;20784;51.332;12.410;2022-12-18T04:18:45;-7.40;99.90
34542;DHT22;20784;51.332;12.410;2022-12-18T04:21:11;-7.40;99.90
34542;DHT22;20784;51.332;12.410;2022-12-18T04:23:41;-7.40;99.90
34542;DHT22;20784;51.332;12.410;2022-12-18T04:26:06;-7.40;99.90
34542;DHT22;20784;51.332;12.410;2022-12-18T04:28:32;-7.40;99.90
34542;DHT22;20784;51.332;12.410;2022-12-18T04:30:58;-7.40;99.90
34542;DHT22;20784;51.332;12.410;2022-12-18T04:33:24;-7.50;99.90
34542;DHT22;20784;51.332;12.410;2022-12-18T04:35:49;-7.50;99.90
34542;DHT22;20784;51.332;12.410;2022-12-18T04:38:23;-7.50;99.90
34542;DHT22;20784;51.332;12.410;2022-12-18T04:40:48;-7.40;99.90
34542;DHT22;20784;51.332;12.410;2022-12-18T04:43:14;-7.40;99.90
34542;DHT22;20784;51.332;12.410;2022-12-18T04:45:40;-7.50;99.90
34542;DHT22;20784;51.332;12.410;2022-12-18T04:48:06;-7.40;99.90
34542;DHT22;20784;51.332;12.410;2022-12-18T04:50:31;-7.30;99.90
34542;DHT22;20784;51.332;12.410;2022-12-18T04:52:57;-7.40;99.90
34542;DHT22;20784;51.332;12.410;2022-12-18T04:55:23;-7.40;99.90
34542;DHT22;20784;51.332;12.410;2022-12-18T04:57:49;-7.40;99.90
34542;DHT22;20784;51.332;12.410;2022-12-18T05:00:15;-7.30;99.90
34542;DHT22;20784;51.332;12.410;2022-12-18T05:02:40;-7.20;99.90
34542;DHT22;20784;51.332;12.410;2022-12-18T05:05:07;-7.40;99.90
34542;DHT22;20784;51.332;12.410;2022-12-18T05:07:35;-7.40;99.90
34542;DHT22;20784;51.332;12.410;2022-12-18T05:10:03;-7.40;99.90
34542;DHT22;20784;51.332;12.410;2022-12-18T05:12:31;-7.40;99.90
34542;DHT22;20784;51.332;12.410;2022-12-18T05:14:59;-7.30;99.90
34542;DHT22;20784;51.332;12.410;2022-12-18T05:17:27;-7.40;99.90
34542;DHT22;20784;51.332;12.410;2022-12-18T05:19:53;-7.40;99.90
34542;DHT22;20784;51.332;12.410;2022-12-18T05:22:19;-7.40;99.90
34542;DHT22;20784;51.332;12.410;2022-12-18T05:24:44;-7.40;99.90
34542;DHT22;20784;51.332;12.410;2022-12-18T05:27:10;-7.40;99.90
34542;DHT22;20784;51.332;12.410;2022-12-18T05:29:36;-7.30;99.90
34542;DHT22;20784;51.332;12.410;2022-12-18T05:32:02;-7.30;99.90
34542;DHT22;20784;51.332;12.410;2022-12-18T05:34:28;-7.30;99.90
34542;DHT22;20784;51.332;12.410;2022-12-18T05:36:58;-7.30;99.90
34542;DHT22;20784;51.332;12.410;2022-12-18T05:39:24;-7.30;99.90
34542;DHT22;20784;51.332;12.410;2022-12-18T05:41:50;-7.30;99.90
34542;DHT22;20784;51.332;12.410;2022-12-18T05:44:16;-7.30;99.90
34542;DHT22;20784;51.332;12.410;2022-12-18T05:46:42;-7.20;99.90
34542;DHT22;20784;51.332;12.410;2022-12-18T05:49:07;-7.30;99.90
34542;DHT22;20784;51.332;12.410;2022-12-18T05:51:33;-7.20;99.90
34542;DHT22;20784;51.332;12.410;2022-12-18T05:53:59;-7.30;99.90
34542;DHT22;20784;51.332;12.410;2022-12-18T05:56:24;-7.30;99.90
34542;DHT22;20784;51.332;12.410;2022-12-18T05:58:54;-7.30;99.90
34542;DHT22;20784;51.332;12.410;2022-12-18T06:01:23;-7.40;99.90
34542;DHT22;20784;51.332;12.410;2022-12-18T06:03:49;-7.30;99.90
34542;DHT22;20784;51.332;12.410;2022-12-18T06:06:23;-7.20;99.90
34542;DHT22;20784;51.332;12.410;2022-12-18T06:08:50;-7.30;99.90
34542;DHT22;20784;51.332;12.410;2022-12-18T06:11:25;-7.20;99.90
34542;DHT22;20784;51.332;12.410;2022-12-18T06:13:53;-7.30;99.90
34542;DHT22;20784;51.332;12.410;2022-12-18T06:16:18;-7.30;99.90
34542;DHT22;20784;51.332;12.410;2022-12-18T06:18:44;-7.40;99.90
34542;DHT22;20784;51.332;12.410;2022-12-18T06:21:10;-7.40;99.90
34542;DHT22;20784;51.332;12.410;2022-12-18T06:23:39;-7.40;99.90
34542;DHT22;20784;51.332;12.410;2022-12-18T06:26:07;-7.40;99.90
34542;DHT22;20784;51.332;12.410;2022-12-18T06:28:33;-7.40;99.90
34542;DHT22;20784;51.332;12.410;2022-12-18T06:30:58;-7.40;99.90
34542;DHT22;20784;51.332;12.410;2022-12-18T06:33:26;-7.40;97.00
34542;DHT22;20784;51.332;12.410;2022-12-18T06:35:53;-7.40;94.50
34542;DHT22;20784;51.332;12.410;2022-12-18T06:38:19;-7.50;95.70
34542;DHT22;20784;51.332;12.410;2022-12-18T06:40:44;-7.60;97.00
34542;DHT22;20784;51.332;12.410;2022-12-18T06:43:10;-7.50;99.70
34542;DHT22;20784;51.332;12.410;2022-12-18T06:45:49;-7.50;99.50
34542;DHT22;20784;51.332;12.410;2022-12-18T06:48:21;-7.50;98.60
34542;DHT22;20784;51.332;12.410;2022-12-18T06:50:47;-7.50;96.80
34542;DHT22;20784;51.332;12.410;2022-12-18T06:53:12;-7.60;96.40
34542;DHT22;20784;51.332;12.410;2022-12-18T06:55:38;-7.50;98.70
34542;DHT22;20784;51.332;12.410;2022-12-18T06:58:04;-7.60;98.80
34542;DHT22;20784;51.332;12.410;2022-12-18T07:00:29;-7.60;99.90
34542;DHT22;20784;51.332;12.410;2022-12-18T07:02:55;-7.60;99.90
34542;DHT22;20784;51.332;12.410;2022-12-18T07:05:21;-7.60;99.90
34542;DHT22;20784;51.332;12.410;2022-12-18T07:07:47;-7.60;99.90
34542;DHT22;20784;51.332;12.410;2022-12-18T07:10:12;-7.50;99.90
34542;DHT22;20784;51.332;12.410;2022-12-18T07:12:38;-7.60;99.90
34542;DHT22;20784;51.332;12.410;2022-12-18T07:15:04;-7.60;99.90
34542;DHT22;20784;51.332;12.410;2022-12-18T07:17:30;-7.50;99.80
34542;DHT22;20784;51.332;12.410;2022-12-18T07:19:55;-7.60;99.90
34542;DHT22;20784;51.332;12.410;2022-12-18T07:22:21;-7.50;99.90
34542;DHT22;20784;51.332;12.410;2022-12-18T07:24:47;-7.40;99.90
34542;DHT22;20784;51.332;12.410;2022-12-18T07:27:14;-7.40;99.90
34542;DHT22;20784;51.332;12.410;2022-12-18T07:29:40;-7.40;99.60
34542;DHT22;20784;51.332;12.410;2022-12-18T07:32:05;-7.40;99.70
34542;DHT22;20784;51.332;12.410;2022-12-18T07:34:32;-7.30;98.90
34542;DHT22;20784;51.332;12.410;2022-12-18T07:36:58;-7.30;95.10
34542;DHT22;20784;51.332;12.410;2022-12-18T07:39:23;-7.30;97.00
34542;DHT22;20784;51.332;12.410;2022-12-18T07:41:49;-7.30;97.70
34542;DHT22;20784;51.332;12.410;2022-12-18T07:44:35;-7.30;98.90
34542;DHT22;20784;51.332;12.410;2022-12-18T07:47:01;-7.30;97.50
34542;DHT22;20784;51.332;12.410;2022-12-18T07:49:27;-7.30;97.40
34542;DHT22;20784;51.332;12.410;2022-12-18T07:51:55;-7.30;96.00
34542;DHT22;20784;51.332;12.410;2022-12-18T07:54:22;-7.30;96.10
34542;DHT22;20784;51.332;12.410;2022-12-18T07:56:48;-7.20;98.10
34542;DHT22;20784;51.332;12.410;2022-12-18T07:59:13;-7.20;97.50
34542;DHT22;20784;51.332;12.410;2022-12-18T08:01:39;-7.30;94.70
34542;DHT22;20784;51.332;12.410;2022-12-18T08:04:05;-7.20;95.40
34542;DHT22;20784;51.332;12.410;2022-12-18T08:06:31;-7.10;96.50
34542;DHT22;20784;51.332;12.410;2022-12-18T08:08:57;-7.10;96.50
34542;DHT22;20784;51.332;12.410;2022-12-18T08:11:24;-7.00;95.10
34542;DHT22;20784;51.332;12.410;2022-12-18T08:13:50;-6.90;93.70
34542;DHT22;20784;51.332;12.410;2022-12-18T08:16:16;-6.90;93.00
34542;DHT22;20784;51.332;12.410;2022-12-18T08:18:42;-6.90;92.50
34542;DHT22;20784;51.332;12.410;2022-12-18T08:21:13;-6.80;93.80
34542;DHT22;20784;51.332;12.410;2022-12-18T08:23:43;-6.40;99.90
34542;DHT22;20784;51.332;12.410;2022-12-18T08:26:13;-5.20;99.90
34542;DHT22;20784;51.332;12.410;2022-12-18T08:28:39;-3.30;1.00
34542;DHT22;20784;51.332;12.410;2022-12-18T08:31:06;-1.30;99.90
34542;DHT22;20784;51.332;12.410;2022-12-18T08:33:32;0.80;99.90
34542;DHT22;20784;51.332;12.410;2022-12-18T08:35:58;2.80;99.90
34542;DHT22;20784;51.332;12.410;2022-12-18T08:38:24;4.60;1.00
34542;DHT22;20784;51.332;12.410;2022-12-18T08:41:00;6.30;99.90
34542;DHT22;20784;51.332;12.410;2022-12-18T08:43:29;8.10;1.00
34542;DHT22;20784;51.332;12.410;2022-12-18T08:46:25;9.60;1.00
34542;DHT22;20784;51.332;12.410;2022-12-18T08:48:53;10.90;99.90
34542;DHT22;20784;51.332;12.410;2022-12-18T08:51:19;11.40;99.90
34542;DHT22;20784;51.332;12.410;2022-12-18T08:53:45;12.60;99.90
34542;DHT22;20784;51.332;12.410;2022-12-18T08:56:12;13.00;99.90
34542;DHT22;20784;51.332;12.410;2022-12-18T08:58:38;12.60;99.90
34542;DHT22;20784;51.332;12.410;2022-12-18T09:01:09;14.10;1.00
34542;DHT22;20784;51.332;12.410;2022-12-18T09:03:35;14.10;99.90
34542;DHT22;20784;51.332;12.410;2022-12-18T09:06:01;14.10;99.90
34542;DHT22;20784;51.332;12.410;2022-12-18T09:08:30;13.60;99.90
34542;DHT22;20784;51.332;12.410;2022-12-18T09:10:56;14.70;99.90
34542;DHT22;20784;51.332;12.410;2022-12-18T09:13:25;14.50;99.90
34542;DHT22;20784;51.332;12.410;2022-12-18T09:15:53;16.10;99.90
34542;DHT22;20784;51.332;12.410;2022-12-18T09:18:22;16.80;99.90
34542;DHT22;20784;51.332;12.410;2022-12-18T09:20:48;16.80;99.90
34542;DHT22;20784;51.332;12.410;2022-12-18T09:23:14;15.70;99.90
34542;DHT22;20784;51.332;12.410;2022-12-18T09:25:43;15.30;93.30
34542;DHT22;20784;51.332;12.410;2022-12-18T09:28:18;15.50;89.10
34542;DHT22;20784;51.332;12.410;2022-12-18T09:30:47;15.50;84.80
34542;DHT22;20784;51.332;12.410;2022-12-18T09:33:17;15.90;73.70
34542;DHT22;20784;51.332;12.410;2022-12-18T09:35:44;16.40;86.00
34542;DHT22;20784;51.332;12.410;2022-12-18T09:38:18;16.40;58.00
34542;DHT22;20784;51.332;12.410;2022-12-18T09:40:48;17.10;39.70
34542;DHT22;20784;51.332;12.410;2022-12-18T09:43:21;17.50;27.30
34542;DHT22;20784;51.332;12.410;2022-12-18T09:45:53;17.40;25.80
34542;DHT22;20784;51.332;12.410;2022-12-18T09:48:32;16.80;18.50
34542;DHT22;20784;51.332;12.410;2022-12-18T09:51:04;16.50;13.60
34542;DHT22;20784;51.332;12.410;2022-12-18T09:53:34;16.40;12.90
34542;DHT22;20784;51.332;12.410;2022-12-18T09:56:03;17.00;5.80
34542;DHT22;20784;51.332;12.410;2022-12-18T09:58:52;17.80;6.40
34542;DHT22;20784;51.332;12.410;2022-12-18T10:01:22;17.50;1.00
34542;DHT22;20784;51.332;12.410;2022-12-18T10:03:50;18.00;1.00
34542;DHT22;20784;51.332;12.410;2022-12-18T10:06:29;18.10;1.00
34542;DHT22;20784;51.332;12.410;2022-12-18T10:12:26;17.60;1.00
34542;DHT22;20784;51.332;12.410;2022-12-18T10:15:30;17.60;1.00
34542;DHT22;20784;51.332;12.410;2022-12-18T10:20:41;17.10;1.00
34542;DHT22;20784;51.332;12.410;2022-12-18T10:26:07;18.20;1.00
34542;DHT22;20784;51.332;12.410;2022-12-18T10:28:36;18.00;1.00
34542;DHT22;20784;51.332;12.410;2022-12-18T10:31:02;17.80;1.00
34542;DHT22;20784;51.332;12.410;2022-12-18T10:33:32;17.80;1.00
34542;DHT22;20784;51.332;12.410;2022-12-18T10:35:58;17.00;1.00
34542;DHT22;20784;51.332;12.410;2022-12-18T10:38:27;17.10;1.00
34542;DHT22;20784;51.332;12.410;2022-12-18T10:43:24;17.90;1.00
34542;DHT22;20784;51.332;12.410;2022-12-18T10:46:14;17.50;1.00
34542;DHT22;20784;51.332;12.410;2022-12-18T10:51:23;17.30;1.00
34542;DHT22;20784;51.332;12.410;2022-12-18T10:54:12;17.70;1.00
34542;DHT22;20784;51.332;12.410;2022-12-18T10:56:39;17.90;1.00
34542;DHT22;20784;51.332;12.410;2022-12-18T10:59:08;17.80;1.00
34542;DHT22;20784;51.332;12.410;2022-12-18T11:04:17;17.80;1.00
34542;DHT22;20784;51.332;12.410;2022-12-18T11:06:57;16.80;1.00
34542;DHT22;20784;51.332;12.410;2022-12-18T11:09:26;16.40;1.00
34542;DHT22;20784;51.332;12.410;2022-12-18T11:11:59;17.10;1.00
34542;DHT22;20784;51.332;12.410;2022-12-18T11:14:27;17.30;1.00
34542;DHT22;20784;51.332;12.410;2022-12-18T11:16:54;16.80;1.00
34542;DHT22;20784;51.332;12.410;2022-12-18T11:22:28;16.50;1.00
34542;DHT22;20784;51.332;12.410;2022-12-18T11:25:00;15.00;1.00
34542;DHT22;20784;51.332;12.410;2022-12-18T11:27:28;14.20;1.00
34542;DHT22;20784;51.332;12.410;2022-12-18T11:30:13;13.50;1.00
34542;DHT22;20784;51.332;12.410;2022-12-18T11:32:47;13.10;1.00
34542;DHT22;20784;51.332;12.410;2022-12-18T11:37:43;12.10;1.00
34542;DHT22;20784;51.332;12.410;2022-12-18T11:40:17;11.60;14.90
34542;DHT22;20784;51.332;12.410;2022-12-18T11:42:50;10.90;14.50
34542;DHT22;20784;51.332;12.410;2022-12-18T11:45:37;10.10;46.80
34542;DHT22;20784;51.332;12.410;2022-12-18T11:50:50;6.80;99.90
34542;DHT22;20784;51.332;12.410;2022-12-18T11:53:16;5.90;1.00
34542;DHT22;20784;51.332;12.410;2022-12-18T11:58:33;4.10;99.90
34542;DHT22;20784;51.332;12.410;2022-12-18T12:04:46;3.50;99.90
34542;DHT22;20784;51.332;12.410;2022-12-18T12:09:38;2.80;1.00
34542;DHT22;20784;51.332;12.410;2022-12-18T12:24:35;1.40;99.90
34542;DHT22;20784;51.332;12.410;2022-12-18T12:30:20;0.80;1.00
34542;DHT22;20784;51.332;12.410;2022-12-18T12:33:00;0.50;93.60
34542;DHT22;20784;51.332;12.410;2022-12-18T12:38:24;0.30;99.90
34542;DHT22;20784;51.332;12.410;2022-12-18T12:40:56;0.30;99.90
34542;DHT22;20784;51.332;12.410;2022-12-18T12:46:07;-0.10;99.90
34542;DHT22;20784;51.332;12.410;2022-12-18T12:51:18;-0.50;99.90
34542;DHT22;20784;51.332;12.410;2022-12-18T12:53:45;-0.50;1.00
34542;DHT22;20784;51.332;12.410;2022-12-18T12:56:13;-0.50;1.00
34542;DHT22;20784;51.332;12.410;2022-12-18T12:58:46;-0.60;1.00
34542;DHT22;20784;51.332;12.410;2022-12-18T13:04:08;-0.60;99.90
34542;DHT22;20784;51.332;12.410;2022-12-18T13:06:50;-0.70;99.90
34542;DHT22;20784;51.332;12.410;2022-12-18T13:09:18;-0.80;99.90
34542;DHT22;20784;51.332;12.410;2022-12-18T13:11:45;-0.80;1.00
34542;DHT22;20784;51.332;12.410;2022-12-18T13:14:40;-0.80;99.90
34542;DHT22;20784;51.332;12.410;2022-12-18T13:17:29;-0.90;99.90
34542;DHT22;20784;51.332;12.410;2022-12-18T13:20:08;-1.00;23.90
34542;DHT22;20784;51.332;12.410;2022-12-18T13:25:34;-1.00;1.00
34542;DHT22;20784;51.332;12.410;2022-12-18T13:28:07;-1.00;1.00
34542;DHT22;20784;51.332;12.410;2022-12-18T13:43:30;-1.40;99.90
34542;DHT22;20784;51.332;12.410;2022-12-18T13:46:00;-1.50;99.90
34542;DHT22;20784;51.332;12.410;2022-12-18T13:48:36;-1.50;99.90
34542;DHT22;20784;51.332;12.410;2022-12-18T13:51:08;-1.60;99.90
34542;DHT22;20784;51.332;12.410;2022-12-18T13:53:43;-1.70;1.00
34542;DHT22;20784;51.332;12.410;2022-12-18T13:56:21;-1.80;47.00
34542;DHT22;20784;51.332;12.410;2022-12-18T14:01:34;-1.90;1.00
34542;DHT22;20784;51.332;12.410;2022-12-18T14:04:29;-2.00;99.90
34542;DHT22;20784;51.332;12.410;2022-12-18T14:06:58;-2.00;99.90
34542;DHT22;20784;51.332;12.410;2022-12-18T14:09:27;-1.90;99.90
34542;DHT22;20784;51.332;12.410;2022-12-18T14:11:54;-1.90;99.90
34542;DHT22;20784;51.332;12.410;2022-12-18T14:14:43;-2.00;1.00
34542;DHT22;20784;51.332;12.410;2022-12-18T14:17:12;-2.00;1.00
34542;DHT22;20784;51.332;12.410;2022-12-18T14:19:42;-2.00;1.00
34542;DHT22;20784;51.332;12.410;2022-12-18T14:22:16;-2.00;1.00
34542;DHT22;20784;51.332;12.410;2022-12-18T14:24:42;-2.00;1.00
34542;DHT22;20784;51.332;12.410;2022-12-18T14:27:24;-2.10;1.00
34542;DHT22;20784;51.332;12.410;2022-12-18T14:29:50;-2.10;1.00
34542;DHT22;20784;51.332;12.410;2022-12-18T14:32:18;-2.00;1.00
34542;DHT22;20784;51.332;12.410;2022-12-18T14:34:53;-2.10;1.00
34542;DHT22;20784;51.332;12.410;2022-12-18T14:37:24;-2.10;1.00
34542;DHT22;20784;51.332;12.410;2022-12-18T14:39:58;-2.20;1.00
34542;DHT22;20784;51.332;12.410;2022-12-18T14:42:25;-2.30;1.00
34542;DHT22;20784;51.332;12.410;2022-12-18T14:47:58;-2.30;1.00
34542;DHT22;20784;51.332;12.410;2022-12-18T14:50:24;-2.30;1.00
34542;DHT22;20784;51.332;12.410;2022-12-18T14:52:51;-2.30;1.00
34542;DHT22;20784;51.332;12.410;2022-12-18T14:55:18;-2.40;1.00
34542;DHT22;20784;51.332;12.410;2022-12-18T14:57:44;-2.40;1.00
34542;DHT22;20784;51.332;12.410;2022-12-18T15:00:20;-2.40;1.00
34542;DHT22;20784;51.332;12.410;2022-12-18T15:02:50;-2.40;1.00
34542;DHT22;20784;51.332;12.410;2022-12-18T15:07:48;-2.60;1.00
34542;DHT22;20784;51.332;12.410;2022-12-18T15:10:17;-2.70;1.00
34542;DHT22;20784;51.332;12.410;2022-12-18T15:20:50;-2.80;1.00
34542;DHT22;20784;51.332;12.410;2022-12-18T15:23:33;-2.90;1.00
34542;DHT22;20784;51.332;12.410;2022-12-18T15:26:10;-2.90;1.00
34542;DHT22;20784;51.332;12.410;2022-12-18T15:28:39;-2.90;1.00
34542;DHT22;20784;51.332;12.410;2022-12-18T15:33:36;-2.90;1.00
34542;DHT22;20784;51.332;12.410;2022-12-18T15:36:04;-2.90;1.00
34542;DHT22;20784;51.332;12.410;2022-12-18T15:38:31;-2.90;1.00
34542;DHT22;20784;51.332;12.410;2022-12-18T15:40:57;-3.00;1.00
34542;DHT22;20784;51.332;12.410;2022-12-18T15:43:24;-3.10;1.00
34542;DHT22;20784;51.332;12.410;2022-12-18T15:48:54;-3.10;1.00
34542;DHT22;20784;51.332;12.410;2022-12-18T15:51:29;-3.20;1.00
34542;DHT22;20784;51.332;12.410;2022-12-18T15:54:01;-3.20;1.00
34542;DHT22;20784;51.332;12.410;2022-12-18T15:56:33;-3.10;1.00
34542;DHT22;20784;51.332;12.410;2022-12-18T15:59:19;-3.00;1.00
34542;DHT22;20784;51.332;12.410;2022-12-18T16:01:47;-3.10;1.00
34542;DHT22;20784;51.332;12.410;2022-12-18T16:04:15;-3.10;1.00
34542;DHT22;20784;51.332;12.410;2022-12-18T16:06:42;-3.10;1.00
34542;DHT22;20784;51.332;12.410;2022-12-18T16:09:08;-3.10;1.00
34542;DHT22;20784;51.332;12.410;2022-12-18T16:11:36;-3.10;1.00
34542;DHT22;20784;51.332;12.410;2022-12-18T16:14:26;-3.00;1.00
34542;DHT22;20784;51.332;12.410;2022-12-18T16:16:54;-3.00;1.00
34542;DHT22;20784;51.332;12.410;2022-12-18T16:19:20;-3.00;1.00
34542;DHT22;20784;51.332;12.410;2022-12-18T16:21:51;-3.10;1.00
34542;DHT22;20784;51.332;12.410;2022-12-18T16:24:19;-3.10;1.00
34542;DHT22;20784;51.332;12.410;2022-12-18T16:26:51;-3.10;1.00
34542;DHT22;20784;51.332;12.410;2022-12-18T16:29:17;-3.10;1.00
34542;DHT22;20784;51.332;12.410;2022-12-18T16:31:43;-3.20;1.00
34542;DHT22;20784;51.332;12.410;2022-12-18T16:34:22;-3.30;1.00
34542;DHT22;20784;51.332;12.410;2022-12-18T16:36:49;-3.30;1.00
34542;DHT22;20784;51.332;12.410;2022-12-18T16:39:16;-3.30;1.00
34542;DHT22;20784;51.332;12.410;2022-12-18T16:41:42;-3.40;1.00
34542;DHT22;20784;51.332;12.410;2022-12-18T16:44:08;-3.50;1.00
34542;DHT22;20784;51.332;12.410;2022-12-18T16:46:33;-3.40;1.00
34542;DHT22;20784;51.332;12.410;2022-12-18T16:49:00;-3.50;1.00
34542;DHT22;20784;51.332;12.410;2022-12-18T16:51:26;-3.50;1.00
34542;DHT22;20784;51.332;12.410;2022-12-18T16:53:53;-3.40;1.00
34542;DHT22;20784;51.332;12.410;2022-12-18T16:56:20;-3.50;1.00
34542;DHT22;20784;51.332;12.410;2022-12-18T16:58:56;-3.50;1.00
34542;DHT22;20784;51.332;12.410;2022-12-18T17:01:23;-3.40;1.00
34542;DHT22;20784;51.332;12.410;2022-12-18T17:04:00;-3.40;1.00
34542;DHT22;20784;51.332;12.410;2022-12-18T17:06:27;-3.50;1.00
34542;DHT22;20784;51.332;12.410;2022-12-18T17:08:58;-3.50;1.00
34542;DHT22;20784;51.332;12.410;2022-12-18T17:11:25;-3.50;1.00
34542;DHT22;20784;51.332;12.410;2022-12-18T17:13:51;-3.50;1.00
34542;DHT22;20784;51.332;12.410;2022-12-18T17:16:20;-3.50;1.00
34542;DHT22;20784;51.332;12.410;2022-12-18T17:18:46;-3.50;1.00
34542;DHT22;20784;51.332;12.410;2022-12-18T17:21:14;-3.50;1.00
34542;DHT22;20784;51.332;12.410;2022-12-18T17:23:41;-3.50;1.00
34542;DHT22;20784;51.332;12.410;2022-12-18T17:26:11;-3.40;1.00
34542;DHT22;20784;51.332;12.410;2022-12-18T17:28:39;-3.40;1.00
34542;DHT22;20784;51.332;12.410;2022-12-18T17:31:16;-3.40;1.00
34542;DHT22;20784;51.332;12.410;2022-12-18T17:33:44;-3.40;1.00
34542;DHT22;20784;51.332;12.410;2022-12-18T17:36:10;-3.50;1.00
34542;DHT22;20784;51.332;12.410;2022-12-18T17:38:38;-3.40;1.00
34542;DHT22;20784;51.332;12.410;2022-12-18T17:41:09;-3.40;1.00